sensor_id;sensor_type;location;lat;lon;timestamp;temperature;humidity
20155;DHT22;10238;49.556;10.956;2023-04-07T09:51:08;16.20;99.90
20155;DHT22;10238;49.556;10.956;2023-04-07T09:53:56;16.70;99.90
20155;DHT22;10238;49.556;10.956;2023-04-07T09:56:44;16.80;98.90
20155;DHT22;10238;49.556;10.956;2023-04-07T09:59:36;16.90;99.90
20155;DHT22;10238;49.556;10.956;2023-04-07T10:02:29;17.40;99.90
20155;DHT22;10238;49.556;10.956;2023-04-07T10:05:17;18.00;99.90
20155;DHT22;10238;49.556;10.956;2023-04-07T10:08:09;18.30;99.90
20155;DHT22;10238;49.556;10.956;2023-04-07T10:11:00;18.70;99.70
20155;DHT22;10238;49.556;10.956;2023-04-07T10:13:49;19.10;99.90
20155;DHT22;10238;49.556;10.956;2023-04-07T10:16:37;19.50;99.40
20155;DHT22;10238;49.556;10.956;2023-04-07T10:19:31;19.60;99.00
20155;DHT22;10238;49.556;10.956;2023-04-07T10:22:21;19.40;99.10
20155;DHT22;10238;49.556;10.956;2023-04-07T10:25:13;19.90;94.50
20155;DHT22;10238;49.556;10.956;2023-04-07T10:28:07;19.90;96.60
20155;DHT22;10238;49.556;10.956;2023-04-07T10:31:00;20.40;96.60
20155;DHT22;10238;49.556;10.956;2023-04-07T10:33:52;20.90;94.90
20155;DHT22;10238;49.556;10.956;2023-04-07T10:37:08;21.10;94.90
20155;DHT22;10238;49.556;10.956;2023-04-07T10:40:27;21.30;86.80
20155;DHT22;10238;49.556;10.956;2023-04-07T10:43:36;21.30;93.70
20155;DHT22;10238;49.556;10.956;2023-04-07T10:46:25;22.00;93.40
20155;DHT22;10238;49.556;10.956;2023-04-07T10:50:15;22.10;92.70
20155;DHT22;10238;49.556;10.956;2023-04-07T10:53:07;22.20;86.40
20155;DHT22;10238;49.556;10.956;2023-04-07T10:55:57;22.10;84.80
20155;DHT22;10238;49.556;10.956;2023-04-07T10:58:45;22.20;92.60
20155;DHT22;10238;49.556;10.956;2023-04-07T11:01:33;21.70;92.90
20155;DHT22;10238;49.556;10.956;2023-04-07T11:04:35;22.30;94.10
20155;DHT22;10238;49.556;10.956;2023-04-07T11:07:42;22.60;92.70
20155;DHT22;10238;49.556;10.956;2023-04-07T11:10:33;22.90;92.60
20155;DHT22;10238;49.556;10.956;2023-04-07T11:13:21;22.80;92.20
20155;DHT22;10238;49.556;10.956;2023-04-07T11:16:09;23.10;91.90
20155;DHT22;10238;49.556;10.956;2023-04-07T11:18:57;23.20;87.80
20155;DHT22;10238;49.556;10.956;2023-04-07T11:21:45;21.90;79.70
20155;DHT22;10238;49.556;10.956;2023-04-07T11:24:32;22.60;91.90
20155;DHT22;10238;49.556;10.956;2023-04-07T11:27:24;23.30;91.10
20155;DHT22;10238;49.556;10.956;2023-04-07T11:30:15;23.80;88.00
20155;DHT22;10238;49.556;10.956;2023-04-07T11:33:04;24.20;86.90
20155;DHT22;10238;49.556;10.956;2023-04-07T11:35:58;24.30;86.40
20155;DHT22;10238;49.556;10.956;2023-04-07T11:38:47;24.40;88.80
20155;DHT22;10238;49.556;10.956;2023-04-07T11:41:45;24.50;89.10
20155;DHT22;10238;49.556;10.956;2023-04-07T11:44:34;24.20;72.70
20155;DHT22;10238;49.556;10.956;2023-04-07T11:47:35;23.10;76.90
20155;DHT22;10238;49.556;10.956;2023-04-07T11:50:40;22.50;77.10
20155;DHT22;10238;49.556;10.956;2023-04-07T11:53:30;22.30;90.50
20155;DHT22;10238;49.556;10.956;2023-04-07T11:56:19;22.70;90.40
20155;DHT22;10238;49.556;10.956;2023-04-07T11:59:07;23.10;90.00
20155;DHT22;10238;49.556;10.956;2023-04-07T12:01:59;24.00;87.80
20155;DHT22;10238;49.556;10.956;2023-04-07T12:04:55;23.40;73.50
20155;DHT22;10238;49.556;10.956;2023-04-07T12:07:52;23.70;86.70
20155;DHT22;10238;49.556;10.956;2023-04-07T12:10:43;24.00;79.90
20155;DHT22;10238;49.556;10.956;2023-04-07T12:13:32;24.20;88.50
20155;DHT22;10238;49.556;10.956;2023-04-07T12:16:27;24.20;88.10
20155;DHT22;10238;49.556;10.956;2023-04-07T12:19:17;25.00;85.40
20155;DHT22;10238;49.556;10.956;2023-04-07T12:22:05;25.30;81.50
20155;DHT22;10238;49.556;10.956;2023-04-07T12:24:52;24.70;85.00
20155;DHT22;10238;49.556;10.956;2023-04-07T12:27:40;25.40;86.00
20155;DHT22;10238;49.556;10.956;2023-04-07T12:30:29;26.00;83.30
20155;DHT22;10238;49.556;10.956;2023-04-07T12:33:17;25.00;84.20
20155;DHT22;10238;49.556;10.956;2023-04-07T12:36:07;25.10;84.20
20155;DHT22;10238;49.556;10.956;2023-04-07T12:38:57;24.10;86.50
20155;DHT22;10238;49.556;10.956;2023-04-07T12:41:45;23.00;85.90
20155;DHT22;10238;49.556;10.956;2023-04-07T12:44:33;24.60;83.50
20155;DHT22;10238;49.556;10.956;2023-04-07T12:47:23;25.30;82.30
20155;DHT22;10238;49.556;10.956;2023-04-07T12:50:21;24.50;72.60
20155;DHT22;10238;49.556;10.956;2023-04-07T12:53:13;24.50;80.20
20155;DHT22;10238;49.556;10.956;2023-04-07T12:56:05;24.50;77.40
20155;DHT22;10238;49.556;10.956;2023-04-07T12:59:10;24.00;74.80
20155;DHT22;10238;49.556;10.956;2023-04-07T13:02:00;24.80;81.60
20155;DHT22;10238;49.556;10.956;2023-04-07T13:04:48;25.60;78.00
20155;DHT22;10238;49.556;10.956;2023-04-07T13:07:36;26.00;77.80
20155;DHT22;10238;49.556;10.956;2023-04-07T13:10:24;26.10;75.20
20155;DHT22;10238;49.556;10.956;2023-04-07T13:13:15;26.00;74.80
20155;DHT22;10238;49.556;10.956;2023-04-07T13:16:03;25.70;74.50
20155;DHT22;10238;49.556;10.956;2023-04-07T13:18:50;25.50;74.50
20155;DHT22;10238;49.556;10.956;2023-04-07T13:21:38;25.40;74.00
20155;DHT22;10238;49.556;10.956;2023-04-07T13:24:32;24.90;73.90
20155;DHT22;10238;49.556;10.956;2023-04-07T13:27:21;25.10;74.00
20155;DHT22;10238;49.556;10.956;2023-04-07T13:30:09;24.70;75.20
20155;DHT22;10238;49.556;10.956;2023-04-07T13:32:58;24.90;76.00
20155;DHT22;10238;49.556;10.956;2023-04-07T13:35:46;24.80;73.60
20155;DHT22;10238;49.556;10.956;2023-04-07T13:38:34;24.60;74.70
20155;DHT22;10238;49.556;10.956;2023-04-07T13:41:22;24.40;73.30
20155;DHT22;10238;49.556;10.956;2023-04-07T13:44:11;24.40;74.90
20155;DHT22;10238;49.556;10.956;2023-04-07T13:46:59;24.20;72.20
20155;DHT22;10238;49.556;10.956;2023-04-07T13:49:49;24.00;74.50
20155;DHT22;10238;49.556;10.956;2023-04-07T13:52:37;23.80;73.80
20155;DHT22;10238;49.556;10.956;2023-04-07T13:55:25;23.90;74.30
20155;DHT22;10238;49.556;10.956;2023-04-07T13:58:13;23.70;73.30
20155;DHT22;10238;49.556;10.956;2023-04-07T14:01:02;23.50;74.80
20155;DHT22;10238;49.556;10.956;2023-04-07T14:03:50;23.30;74.50
20155;DHT22;10238;49.556;10.956;2023-04-07T14:06:40;23.20;76.50
20155;DHT22;10238;49.556;10.956;2023-04-07T14:09:28;23.20;76.50
20155;DHT22;10238;49.556;10.956;2023-04-07T14:12:16;23.00;76.40
20155;DHT22;10238;49.556;10.956;2023-04-07T14:15:07;22.80;76.50
20155;DHT22;10238;49.556;10.956;2023-04-07T14:17:57;22.60;72.10
20155;DHT22;10238;49.556;10.956;2023-04-07T14:20:46;22.50;76.70
20155;DHT22;10238;49.556;10.956;2023-04-07T14:23:33;22.30;73.40
20155;DHT22;10238;49.556;10.956;2023-04-07T14:26:23;22.30;77.80
20155;DHT22;10238;49.556;10.956;2023-04-07T14:29:12;22.20;78.00
20155;DHT22;10238;49.556;10.956;2023-04-07T14:32:00;22.00;78.30
20155;DHT22;10238;49.556;10.956;2023-04-07T14:34:49;21.70;78.40
20155;DHT22;10238;49.556;10.956;2023-04-07T14:37:37;21.50;78.10
20155;DHT22;10238;49.556;10.956;2023-04-07T14:40:25;21.40;77.50
20155;DHT22;10238;49.556;10.956;2023-04-07T14:43:12;21.20;78.30
20155;DHT22;10238;49.556;10.956;2023-04-07T14:46:00;21.30;79.50
20155;DHT22;10238;49.556;10.956;2023-04-07T14:48:47;21.20;78.20
20155;DHT22;10238;49.556;10.956;2023-04-07T14:51:37;21.10;77.90
20155;DHT22;10238;49.556;10.956;2023-04-07T14:54:25;21.10;79.00
20155;DHT22;10238;49.556;10.956;2023-04-07T14:57:13;21.20;79.40
20155;DHT22;10238;49.556;10.956;2023-04-07T15:00:02;21.20;79.20
20155;DHT22;10238;49.556;10.956;2023-04-07T15:02:52;21.40;79.60
20155;DHT22;10238;49.556;10.956;2023-04-07T15:05:40;21.50;76.90
20155;DHT22;10238;49.556;10.956;2023-04-07T15:08:29;21.50;77.50
20155;DHT22;10238;49.556;10.956;2023-04-07T15:11:17;21.60;79.40
20155;DHT22;10238;49.556;10.956;2023-04-07T15:14:04;21.80;79.50
20155;DHT22;10238;49.556;10.956;2023-04-07T15:16:52;21.80;78.90
20155;DHT22;10238;49.556;10.956;2023-04-07T15:19:39;21.70;77.50
20155;DHT22;10238;49.556;10.956;2023-04-07T15:22:27;21.50;78.20
20155;DHT22;10238;49.556;10.956;2023-04-07T15:25:17;21.50;79.50
20155;DHT22;10238;49.556;10.956;2023-04-07T15:28:04;21.50;78.60
20155;DHT22;10238;49.556;10.956;2023-04-07T15:30:52;21.50;78.50
20155;DHT22;10238;49.556;10.956;2023-04-07T15:33:40;21.40;80.10
20155;DHT22;10238;49.556;10.956;2023-04-07T15:36:29;21.50;80.20
20155;DHT22;10238;49.556;10.956;2023-04-07T15:39:17;21.50;79.70
20155;DHT22;10238;49.556;10.956;2023-04-07T15:42:06;21.60;80.80
20155;DHT22;10238;49.556;10.956;2023-04-07T15:44:57;21.70;81.20
20155;DHT22;10238;49.556;10.956;2023-04-07T15:47:44;21.70;80.60
20155;DHT22;10238;49.556;10.956;2023-04-07T15:50:32;21.80;80.20
20155;DHT22;10238;49.556;10.956;2023-04-07T15:53:21;21.80;81.30
20155;DHT22;10238;49.556;10.956;2023-04-07T15:56:09;21.90;80.60
20155;DHT22;10238;49.556;10.956;2023-04-07T15:59:00;22.00;79.30
20155;DHT22;10238;49.556;10.956;2023-04-07T16:01:47;21.90;78.60
20155;DHT22;10238;49.556;10.956;2023-04-07T16:04:35;21.90;77.90
20155;DHT22;10238;49.556;10.956;2023-04-07T16:07:23;21.80;78.20
20155;DHT22;10238;49.556;10.956;2023-04-07T16:10:11;21.70;79.10
20155;DHT22;10238;49.556;10.956;2023-04-07T16:12:59;21.60;77.50
20155;DHT22;10238;49.556;10.956;2023-04-07T16:15:48;21.40;77.60
20155;DHT22;10238;49.556;10.956;2023-04-07T16:18:35;21.10;78.90
20155;DHT22;10238;49.556;10.956;2023-04-07T16:21:23;20.90;80.00
20155;DHT22;10238;49.556;10.956;2023-04-07T16:24:12;20.60;78.00
20155;DHT22;10238;49.556;10.956;2023-04-07T16:27:00;20.30;77.60
20155;DHT22;10238;49.556;10.956;2023-04-07T16:29:49;19.90;78.10
20155;DHT22;10238;49.556;10.956;2023-04-07T16:32:41;19.70;79.60
20155;DHT22;10238;49.556;10.956;2023-04-07T16:35:45;19.60;79.50
20155;DHT22;10238;49.556;10.956;2023-04-07T16:38:33;19.40;79.80
20155;DHT22;10238;49.556;10.956;2023-04-07T16:41:24;19.10;80.40
20155;DHT22;10238;49.556;10.956;2023-04-07T16:44:12;18.90;79.60
20155;DHT22;10238;49.556;10.956;2023-04-07T16:46:59;18.60;80.40
20155;DHT22;10238;49.556;10.956;2023-04-07T16:49:48;18.40;80.50
20155;DHT22;10238;49.556;10.956;2023-04-07T16:52:37;18.20;80.60
20155;DHT22;10238;49.556;10.956;2023-04-07T16:55:25;18.00;81.10
20155;DHT22;10238;49.556;10.956;2023-04-07T16:58:13;17.70;81.20
20155;DHT22;10238;49.556;10.956;2023-04-07T17:01:04;17.60;82.00
20155;DHT22;10238;49.556;10.956;2023-04-07T17:03:52;17.40;82.90
20155;DHT22;10238;49.556;10.956;2023-04-07T17:06:40;17.20;83.40
20155;DHT22;10238;49.556;10.956;2023-04-07T17:09:29;17.10;83.90
20155;DHT22;10238;49.556;10.956;2023-04-07T17:12:17;17.00;84.40
20155;DHT22;10238;49.556;10.956;2023-04-07T17:15:06;16.80;84.80
20155;DHT22;10238;49.556;10.956;2023-04-07T17:17:54;16.60;85.10
20155;DHT22;10238;49.556;10.956;2023-04-07T17:20:43;16.50;85.70
20155;DHT22;10238;49.556;10.956;2023-04-07T17:23:32;16.30;86.10
20155;DHT22;10238;49.556;10.956;2023-04-07T17:26:21;16.20;86.60
20155;DHT22;10238;49.556;10.956;2023-04-07T17:29:09;16.00;87.00
20155;DHT22;10238;49.556;10.956;2023-04-07T17:31:56;15.80;87.50
20155;DHT22;10238;49.556;10.956;2023-04-07T17:34:44;15.60;87.40
20155;DHT22;10238;49.556;10.956;2023-04-07T17:37:32;15.40;88.40
20155;DHT22;10238;49.556;10.956;2023-04-07T17:40:20;15.20;88.80
20155;DHT22;10238;49.556;10.956;2023-04-07T17:43:09;15.00;89.40
20155;DHT22;10238;49.556;10.956;2023-04-07T17:45:57;14.80;90.00
20155;DHT22;10238;49.556;10.956;2023-04-07T17:48:44;14.60;90.20
20155;DHT22;10238;49.556;10.956;2023-04-07T17:51:33;14.40;90.30
20155;DHT22;10238;49.556;10.956;2023-04-07T17:54:20;14.20;90.50
20155;DHT22;10238;49.556;10.956;2023-04-07T17:57:08;14.10;90.80
20155;DHT22;10238;49.556;10.956;2023-04-07T17:59:57;13.90;91.00
20155;DHT22;10238;49.556;10.956;2023-04-07T18:02:45;13.70;91.20
20155;DHT22;10238;49.556;10.956;2023-04-07T18:05:35;13.50;91.70
20155;DHT22;10238;49.556;10.956;2023-04-07T18:08:23;13.30;91.60
20155;DHT22;10238;49.556;10.956;2023-04-07T18:11:11;13.20;91.90
20155;DHT22;10238;49.556;10.956;2023-04-07T18:13:59;13.00;92.10
20155;DHT22;10238;49.556;10.956;2023-04-07T18:16:48;12.80;92.40
20155;DHT22;10238;49.556;10.956;2023-04-07T18:19:39;12.60;92.70
20155;DHT22;10238;49.556;10.956;2023-04-07T18:22:27;12.50;92.90
20155;DHT22;10238;49.556;10.956;2023-04-07T18:25:18;12.30;93.10
20155;DHT22;10238;49.556;10.956;2023-04-07T18:28:06;12.20;93.30
20155;DHT22;10238;49.556;10.956;2023-04-07T18:31:03;12.00;93.50
20155;DHT22;10238;49.556;10.956;2023-04-07T18:33:54;11.80;93.60
20155;DHT22;10238;49.556;10.956;2023-04-07T18:36:42;11.70;93.80
20155;DHT22;10238;49.556;10.956;2023-04-07T18:39:32;11.60;93.90
20155;DHT22;10238;49.556;10.956;2023-04-07T18:42:20;11.40;94.00
20155;DHT22;10238;49.556;10.956;2023-04-07T18:45:11;11.30;94.10
20155;DHT22;10238;49.556;10.956;2023-04-07T18:48:00;11.20;94.30
20155;DHT22;10238;49.556;10.956;2023-04-07T18:50:54;11.00;94.60
20155;DHT22;10238;49.556;10.956;2023-04-07T18:53:42;10.90;94.80
20155;DHT22;10238;49.556;10.956;2023-04-07T18:56:33;10.80;94.90
20155;DHT22;10238;49.556;10.956;2023-04-07T18:59:24;10.70;95.20
20155;DHT22;10238;49.556;10.956;2023-04-07T19:02:14;10.60;95.30
20155;DHT22;10238;49.556;10.956;2023-04-07T19:05:02;10.50;95.50
20155;DHT22;10238;49.556;10.956;2023-04-07T19:07:55;10.30;95.60
20155;DHT22;10238;49.556;10.956;2023-04-07T19:10:43;10.20;95.70
20155;DHT22;10238;49.556;10.956;2023-04-07T19:13:31;10.00;96.10
20155;DHT22;10238;49.556;10.956;2023-04-07T19:16:19;9.90;96.30
20155;DHT22;10238;49.556;10.956;2023-04-07T19:19:09;9.80;96.50
20155;DHT22;10238;49.556;10.956;2023-04-07T19:22:01;9.70;96.60
20155;DHT22;10238;49.556;10.956;2023-04-07T19:24:50;9.60;96.70
20155;DHT22;10238;49.556;10.956;2023-04-07T19:27:38;9.50;97.00
20155;DHT22;10238;49.556;10.956;2023-04-07T19:30:28;9.40;97.20
20155;DHT22;10238;49.556;10.956;2023-04-07T19:33:15;9.30;97.50
20155;DHT22;10238;49.556;10.956;2023-04-07T19:36:03;9.20;97.60
20155;DHT22;10238;49.556;10.956;2023-04-07T19:38:51;9.10;97.80
20155;DHT22;10238;49.556;10.956;2023-04-07T19:41:41;9.00;98.10
20155;DHT22;10238;49.556;10.956;2023-04-07T19:44:30;8.90;98.40
20155;DHT22;10238;49.556;10.956;2023-04-07T19:47:18;8.80;98.40
20155;DHT22;10238;49.556;10.956;2023-04-07T19:50:07;8.70;98.70
20155;DHT22;10238;49.556;10.956;2023-04-07T19:52:56;8.60;98.90
20155;DHT22;10238;49.556;10.956;2023-04-07T19:55:46;8.50;99.10
20155;DHT22;10238;49.556;10.956;2023-04-07T19:58:36;8.40;99.50
20155;DHT22;10238;49.556;10.956;2023-04-07T20:01:27;8.30;99.70
20155;DHT22;10238;49.556;10.956;2023-04-07T20:04:15;8.20;99.90
20155;DHT22;10238;49.556;10.956;2023-04-07T20:07:05;8.20;99.90
20155;DHT22;10238;49.556;10.956;2023-04-07T20:09:53;8.10;99.90
20155;DHT22;10238;49.556;10.956;2023-04-07T20:12:42;8.00;99.90
20155;DHT22;10238;49.556;10.956;2023-04-07T20:15:33;7.90;99.90
20155;DHT22;10238;49.556;10.956;2023-04-07T20:18:24;7.90;99.90
20155;DHT22;10238;49.556;10.956;2023-04-07T20:21:13;7.80;99.90
20155;DHT22;10238;49.556;10.956;2023-04-07T20:24:02;7.80;99.90
20155;DHT22;10238;49.556;10.956;2023-04-07T20:26:52;7.70;99.90
20155;DHT22;10238;49.556;10.956;2023-04-07T20:29:41;7.60;99.90
20155;DHT22;10238;49.556;10.956;2023-04-07T20:32:30;7.50;99.90
20155;DHT22;10238;49.556;10.956;2023-04-07T20:35:18;7.50;99.90
20155;DHT22;10238;49.556;10.956;2023-04-07T20:38:07;7.40;99.90
20155;DHT22;10238;49.556;10.956;2023-04-07T20:40:54;7.30;99.90
20155;DHT22;10238;49.556;10.956;2023-04-07T20:43:42;7.20;99.90
20155;DHT22;10238;49.556;10.956;2023-04-07T20:46:31;7.20;99.90
20155;DHT22;10238;49.556;10.956;2023-04-07T20:49:21;7.10;99.90
20155;DHT22;10238;49.556;10.956;2023-04-07T20:52:09;7.00;99.90
20155;DHT22;10238;49.556;10.956;2023-04-07T20:54:58;6.90;99.90
20155;DHT22;10238;49.556;10.956;2023-04-07T20:57:49;7.00;99.90
20155;DHT22;10238;49.556;10.956;2023-04-07T21:00:37;6.90;99.90
20155;DHT22;10238;49.556;10.956;2023-04-07T21:03:26;6.90;99.90
20155;DHT22;10238;49.556;10.956;2023-04-07T21:06:17;6.90;99.90
20155;DHT22;10238;49.556;10.956;2023-04-07T21:09:05;6.90;99.90
20155;DHT22;10238;49.556;10.956;2023-04-07T21:11:53;6.90;99.90
20155;DHT22;10238;49.556;10.956;2023-04-07T21:14:41;6.80;99.90
20155;DHT22;10238;49.556;10.956;2023-04-07T21:17:29;6.80;99.90
20155;DHT22;10238;49.556;10.956;2023-04-07T21:20:17;6.80;99.90
20155;DHT22;10238;49.556;10.956;2023-04-07T21:23:07;6.70;99.90
20155;DHT22;10238;49.556;10.956;2023-04-07T21:25:58;6.70;99.90
20155;DHT22;10238;49.556;10.956;2023-04-07T21:28:47;6.70;99.90
20155;DHT22;10238;49.556;10.956;2023-04-07T21:31:37;6.60;99.90
20155;DHT22;10238;49.556;10.956;2023-04-07T21:34:25;6.60;99.90
20155;DHT22;10238;49.556;10.956;2023-04-07T21:37:15;6.50;99.90
20155;DHT22;10238;49.556;10.956;2023-04-07T21:40:06;6.50;99.90
20155;DHT22;10238;49.556;10.956;2023-04-07T21:42:54;6.50;99.90
20155;DHT22;10238;49.556;10.956;2023-04-07T21:45:42;6.60;99.90
20155;DHT22;10238;49.556;10.956;2023-04-07T21:48:32;6.50;99.90
20155;DHT22;10238;49.556;10.956;2023-04-07T21:51:20;6.50;99.90
20155;DHT22;10238;49.556;10.956;2023-04-07T21:54:08;6.50;99.90
20155;DHT22;10238;49.556;10.956;2023-04-07T21:56:59;6.40;99.90
20155;DHT22;10238;49.556;10.956;2023-04-07T21:59:47;6.40;99.90
20155;DHT22;10238;49.556;10.956;2023-04-07T22:02:34;6.30;99.90
20155;DHT22;10238;49.556;10.956;2023-04-07T22:05:22;6.30;99.90
20155;DHT22;10238;49.556;10.956;2023-04-07T22:08:10;6.20;99.90
20155;DHT22;10238;49.556;10.956;2023-04-07T22:10:58;6.20;99.90
20155;DHT22;10238;49.556;10.956;2023-04-07T22:13:49;6.20;99.90
20155;DHT22;10238;49.556;10.956;2023-04-07T22:16:36;6.30;99.90
20155;DHT22;10238;49.556;10.956;2023-04-07T22:19:24;6.30;99.90
20155;DHT22;10238;49.556;10.956;2023-04-07T22:22:12;6.30;99.90
20155;DHT22;10238;49.556;10.956;2023-04-07T22:24:59;6.30;99.90
20155;DHT22;10238;49.556;10.956;2023-04-07T22:27:47;6.30;99.90
20155;DHT22;10238;49.556;10.956;2023-04-07T22:30:37;6.20;99.90
20155;DHT22;10238;49.556;10.956;2023-04-07T22:33:25;6.30;99.90
20155;DHT22;10238;49.556;10.956;2023-04-07T22:36:13;6.20;99.90
20155;DHT22;10238;49.556;10.956;2023-04-07T22:39:01;6.20;99.90
20155;DHT22;10238;49.556;10.956;2023-04-07T22:41:49;6.20;99.90
20155;DHT22;10238;49.556;10.956;2023-04-07T22:44:36;6.20;99.90
20155;DHT22;10238;49.556;10.956;2023-04-07T22:47:25;6.10;99.90
20155;DHT22;10238;49.556;10.956;2023-04-07T22:50:13;6.10;99.90
20155;DHT22;10238;49.556;10.956;2023-04-07T22:53:00;6.10;99.90
20155;DHT22;10238;49.556;10.956;2023-04-07T22:55:48;6.10;99.90
20155;DHT22;10238;49.556;10.956;2023-04-07T22:58:37;6.10;99.90
20155;DHT22;10238;49.556;10.956;2023-04-07T23:01:25;6.10;99.90
20155;DHT22;10238;49.556;10.956;2023-04-07T23:04:14;6.00;99.90
20155;DHT22;10238;49.556;10.956;2023-04-07T23:07:03;6.00;99.90
20155;DHT22;10238;49.556;10.956;2023-04-07T23:09:50;6.00;99.90
20155;DHT22;10238;49.556;10.956;2023-04-07T23:12:38;6.00;99.90
20155;DHT22;10238;49.556;10.956;2023-04-07T23:15:26;6.00;99.90
20155;DHT22;10238;49.556;10.956;2023-04-07T23:18:14;6.00;99.90
20155;DHT22;10238;49.556;10.956;2023-04-07T23:21:03;6.00;99.90
20155;DHT22;10238;49.556;10.956;2023-04-07T23:23:51;6.00;99.90
20155;DHT22;10238;49.556;10.956;2023-04-07T23:26:39;6.00;99.90
20155;DHT22;10238;49.556;10.956;2023-04-07T23:29:27;6.00;99.90
20155;DHT22;10238;49.556;10.956;2023-04-07T23:32:14;6.00;99.90
20155;DHT22;10238;49.556;10.956;2023-04-07T23:35:02;6.00;99.90
20155;DHT22;10238;49.556;10.956;2023-04-07T23:37:53;6.00;99.90
20155;DHT22;10238;49.556;10.956;2023-04-07T23:40:40;6.10;99.90
20155;DHT22;10238;49.556;10.956;2023-04-07T23:43:28;6.10;99.90
20155;DHT22;10238;49.556;10.956;2023-04-07T23:46:15;6.10;99.90
20155;DHT22;10238;49.556;10.956;2023-04-07T23:49:03;6.00;99.90
20155;DHT22;10238;49.556;10.956;2023-04-07T23:51:51;6.00;99.90
20155;DHT22;10238;49.556;10.956;2023-04-07T23:54:40;6.00;99.90
20155;DHT22;10238;49.556;10.956;2023-04-07T23:57:28;6.00;99.90
